createdAt,value
2023-01-05T17:15:44.823Z,16.60
2023-01-05T17:18:23.768Z,23.20
2023-01-05T17:20:53.337Z,25.73
2023-01-05T17:23:33.639Z,22.25
2023-01-05T17:26:07.352Z,18.83
2023-01-05T17:28:34.994Z,24.23
2023-01-05T17:31:03.752Z,23.40
2023-01-05T17:33:30.780Z,25.87
2023-01-05T17:35:57.795Z,32.93
2023-01-05T17:38:24.760Z,27.53
2023-01-05T17:40:52.003Z,20.80
2023-01-05T17:43:22.113Z,16.20
2023-01-05T17:45:49.024Z,27.20
2023-01-05T17:48:16.264Z,25.90
2023-01-05T17:50:43.699Z,21.70
2023-01-05T17:53:11.100Z,21.80
2023-01-05T17:55:38.473Z,20.47
2023-01-05T17:58:05.241Z,21.67
2023-01-05T18:00:34.850Z,21.50
2023-01-05T18:03:01.702Z,21.10
2023-01-05T18:05:29.061Z,22.70
2023-01-05T18:07:56.913Z,19.20
2023-01-05T18:10:26.740Z,27.57
2023-01-05T18:12:55.909Z,28.47
2023-01-05T18:15:22.706Z,18.43
2023-01-05T18:17:49.416Z,30.03
2023-01-05T18:20:17.717Z,27.73
2023-01-05T18:22:46.706Z,22.07
2023-01-05T18:25:13.776Z,26.47
2023-01-05T18:27:40.715Z,26.05
2023-01-05T18:30:08.964Z,20.30
2023-01-05T18:32:36.225Z,25.83
2023-01-05T18:35:07.314Z,25.80
2023-01-05T18:37:36.881Z,24.37
2023-01-05T18:40:05.865Z,17.10
2023-01-05T18:42:34.467Z,22.93
2023-01-05T18:45:09.083Z,27.00
2023-01-05T18:47:46.824Z,31.40
2023-01-05T18:50:13.640Z,25.47
2023-01-05T18:52:40.248Z,21.50
2023-01-05T18:55:07.389Z,18.07
2023-01-05T18:57:34.452Z,16.40
2023-01-05T19:00:01.201Z,25.30
2023-01-05T19:02:28.422Z,17.13
2023-01-05T19:04:55.842Z,16.10
2023-01-05T19:07:22.611Z,18.80
2023-01-05T19:09:49.338Z,19.70
2023-01-05T19:12:16.142Z,21.83
2023-01-05T19:14:42.791Z,29.93
2023-01-05T19:17:11.119Z,20.87
2023-01-05T19:19:38.136Z,24.30
2023-01-05T19:22:04.753Z,22.00
2023-01-05T19:24:31.897Z,15.80
2023-01-05T19:26:59.988Z,14.20
2023-01-05T19:29:27.865Z,18.33
2023-01-05T19:46:43.842Z,16.15
2023-01-05T19:51:45.450Z,15.65
2023-01-05T19:59:14.669Z,15.40
2023-01-05T20:01:41.574Z,12.87
2023-01-05T20:04:08.366Z,15.03
2023-01-05T20:06:39.268Z,11.53
2023-01-05T20:09:11.124Z,12.77
2023-01-05T20:11:43.221Z,20.77
2023-01-05T20:14:14.139Z,12.40
2023-01-05T20:16:47.202Z,13.75
2023-01-05T20:19:14.091Z,14.70
2023-01-05T20:21:41.281Z,14.60
2023-01-05T20:24:12.141Z,11.80
2023-01-05T20:26:40.839Z,9.90
2023-01-05T20:29:08.102Z,14.90
2023-01-05T20:31:38.180Z,14.20
2023-01-05T20:34:12.240Z,13.60
2023-01-05T20:36:39.674Z,12.40
2023-01-05T20:39:08.085Z,11.50
2023-01-05T20:41:37.638Z,13.30
2023-01-05T20:44:06.184Z,13.07
2023-01-05T20:46:36.718Z,13.17
2023-01-05T20:49:04.021Z,13.50
2023-01-05T20:51:32.649Z,11.70
2023-01-05T20:54:02.395Z,15.10
2023-01-05T20:56:37.675Z,14.60
2023-01-05T20:59:17.336Z,11.40
2023-01-05T21:01:44.940Z,15.60
2023-01-05T21:04:12.367Z,16.40
2023-01-05T21:06:39.494Z,13.57
2023-01-05T21:09:06.793Z,14.70
2023-01-05T21:11:33.523Z,15.13
2023-01-05T21:14:02.538Z,11.80
2023-01-05T21:16:35.667Z,10.40
2023-01-05T21:19:02.380Z,11.87
2023-01-05T21:21:30.208Z,12.60
2023-01-05T21:23:57.306Z,17.43
2023-01-05T21:26:25.018Z,11.97
2023-01-05T21:28:53.471Z,11.03
2023-01-05T21:31:23.088Z,13.07
2023-01-05T21:33:50.446Z,13.87
2023-01-05T21:36:28.880Z,11.50
2023-01-05T21:39:03.633Z,10.70
2023-01-05T21:41:50.612Z,12.30
2023-01-05T21:44:17.952Z,14.70
2023-01-05T21:46:44.941Z,9.43
2023-01-05T21:49:12.932Z,10.37
2023-01-05T21:51:58.529Z,11.60
2023-01-05T21:54:44.129Z,8.37
2023-01-05T21:57:11.590Z,11.73
2023-01-05T21:59:38.628Z,9.10
2023-01-05T22:02:05.673Z,10.17
2023-01-05T22:04:32.563Z,9.77
2023-01-05T22:06:59.247Z,10.43
2023-01-05T22:09:26.007Z,11.70
2023-01-05T22:11:52.664Z,11.73
2023-01-05T22:14:19.404Z,10.60
2023-01-05T22:16:46.086Z,15.57
2023-01-05T22:19:12.804Z,12.10
2023-01-05T22:21:39.750Z,10.83
2023-01-05T22:24:07.038Z,13.40
2023-01-05T22:26:33.745Z,12.90
2023-01-05T22:29:00.401Z,14.53
2023-01-05T22:31:29.123Z,16.90
2023-01-05T22:33:58.731Z,12.30
2023-01-05T22:36:28.101Z,18.97
2023-01-05T22:38:55.852Z,15.13
2023-01-05T22:41:31.121Z,13.90
2023-01-05T22:43:59.212Z,14.27
2023-01-05T22:46:27.794Z,16.70
2023-01-05T22:48:55.879Z,13.93
2023-01-05T22:51:31.330Z,14.93
2023-01-05T22:53:58.646Z,11.67
2023-01-05T22:56:28.748Z,6.87
2023-01-05T22:58:56.620Z,6.17
2023-01-05T23:01:30.435Z,7.07
2023-01-05T23:03:59.678Z,7.97
2023-01-05T23:06:26.821Z,7.20
2023-01-05T23:08:54.634Z,5.57
2023-01-05T23:11:28.191Z,12.53
2023-01-05T23:13:56.295Z,7.03
2023-01-05T23:16:23.603Z,7.37
2023-01-05T23:18:50.274Z,7.37
2023-01-05T23:21:18.855Z,8.97
2023-01-05T23:23:45.987Z,8.27
2023-01-05T23:26:14.986Z,9.90
2023-01-05T23:28:42.661Z,9.70
2023-01-05T23:31:11.426Z,11.13
2023-01-05T23:33:38.200Z,14.23
2023-01-05T23:36:05.780Z,20.00
2023-01-05T23:38:33.479Z,14.83
2023-01-05T23:41:02.862Z,20.63
2023-01-05T23:43:29.736Z,18.77
2023-01-05T23:46:20.463Z,19.70
2023-01-05T23:48:48.461Z,19.90
2023-01-05T23:51:16.816Z,20.03
